Time;durP1;ratioP1;P1;durP2;ratioP2;P2;SDS_P1;SDS_P2;PMS_P1;PMS_P2;Temp;Humidity;BMP_temperature;BMP_pressure;BME280_temperature;BME280_humidity;BME280_pressure;Samples;Min_cycle;Max_cycle;Signal;HPM_P1;HPM_P2
2023/07/20 04:31:16;;;;;;;;;4.50;4.50;;;;;25.97;44.96;101249.06;5637181;22;45538;-63
2023/07/20 04:33:42;;;;;;;;;5.00;4.00;;;;;25.94;45.25;101243.91;5039542;28;45461;-63
2023/07/20 04:36:07;;;;;;;;;5.50;4.00;;;;;25.98;44.95;101236.19;5039534;28;45275;-63
2023/07/20 04:38:33;;;;;;;;;4.25;3.00;;;;;25.92;45.98;101240.44;5039294;28;46196;-63
2023/07/20 04:40:59;;;;;;;;;4.00;4.00;;;;;25.91;45.36;101252.47;5039784;28;45395;-64
2023/07/20 04:43:25;;;;;;;;;4.25;4.00;;;;;25.98;45.43;101238.94;5039557;28;45331;-64
2023/07/20 04:45:50;;;;;;;;;6.25;5.00;;;;;26.02;45.23;101242.25;5039426;28;45505;-63
2023/07/20 04:48:17;;;;;;;;;5.75;4.00;;;;;25.96;45.72;101247.34;5038938;28;47038;-63
2023/07/20 04:50:47;;;;;;;;;3.25;3.25;;;;;25.95;45.32;101242.88;5039220;28;45181;-63
2023/07/20 04:53:13;;;;;;;;;3.75;2.25;;;;;25.93;45.59;101230.31;5039233;28;45373;-63
2023/07/20 04:55:39;;;;;;;;;3.25;3.25;;;;;26.06;45.06;101240.91;5039150;28;45508;-63
2023/07/20 04:58:05;;;;;;;;;3.75;3.00;;;;;25.99;45.31;101244.28;5039043;28;45450;-63
2023/07/20 05:00:32;;;;;;;;;5.00;4.25;;;;;26.14;44.84;101246.47;5039106;28;45368;-64
2023/07/20 05:02:58;;;;;;;;;4.25;4.00;;;;;26.04;44.94;101256.66;5038818;28;45304;-63
2023/07/20 05:05:23;;;;;;;;;7.50;4.75;;;;;25.92;45.63;101253.31;5038594;28;56652;-64
2023/07/20 05:07:49;;;;;;;;;4.00;3.50;;;;;25.99;45.55;101244.28;5037531;28;45307;-64
2023/07/20 05:10:14;;;;;;;;;3.50;2.25;;;;;26.05;45.15;101248.28;5038969;28;45310;-62
2023/07/20 05:12:39;;;;;;;;;3.50;3.50;;;;;26.08;44.79;101252.59;5039045;28;45593;-64
2023/07/20 05:15:05;;;;;;;;;5.00;5.00;;;;;26.01;45.36;101255.13;5039048;28;45506;-63
2023/07/20 05:17:30;;;;;;;;;4.00;4.00;;;;;25.77;45.26;101253.00;5038319;28;46690;-66
2023/07/20 05:19:56;;;;;;;;;3.00;3.00;;;;;25.82;45.45;101256.16;5038955;28;45259;-63
2023/07/20 05:22:21;;;;;;;;;4.75;4.75;;;;;25.68;45.71;101247.59;5038698;28;46934;-64
2023/07/20 05:24:46;;;;;;;;;8.25;5.75;;;;;25.82;45.82;101263.53;5038549;28;45524;-62
2023/07/20 05:27:12;;;;;;;;;5.25;5.00;;;;;25.92;45.19;101272.56;5041387;28;60656;-63
2023/07/20 05:29:43;;;;;;;;;5.00;5.00;;;;;25.74;45.71;101261.56;5049119;28;45422;-63
2023/07/20 05:32:09;;;;;;;;;4.50;4.50;;;;;25.68;45.87;101273.16;5042285;28;45583;-64
2023/07/20 05:34:35;;;;;;;;;4.50;3.00;;;;;25.73;45.54;101270.81;5038326;28;45466;-63
2023/07/20 05:37:00;;;;;;;;;4.25;4.25;;;;;25.73;45.54;101268.06;5038470;28;45246;-63
2023/07/20 05:39:25;;;;;;;;;3.25;3.00;;;;;25.53;45.78;101256.31;5038185;28;53625;-63
2023/07/20 05:41:51;;;;;;;;;4.00;4.00;;;;;25.52;46.16;101270.22;5038690;28;45164;-63
2023/07/20 05:44:16;;;;;;;;;4.00;4.00;;;;;25.54;45.93;101274.50;5037814;28;62108;-63
2023/07/20 05:46:41;;;;;;;;;3.25;3.25;;;;;25.79;45.58;101278.41;5037951;28;47114;-64
2023/07/20 05:49:07;;;;;;;;;6.00;5.00;;;;;25.75;45.73;101267.91;5038215;28;45287;-63
2023/07/20 05:51:32;;;;;;;;;3.00;3.00;;;;;25.93;45.27;101266.91;5038294;28;52001;-65
2023/07/20 05:53:57;;;;;;;;;7.25;3.50;;;;;26.15;44.95;101264.69;5037836;28;58707;-63
2023/07/20 05:56:22;;;;;;;;;6.00;4.25;;;;;26.31;44.63;101262.09;5038497;28;45938;-62
2023/07/20 05:58:48;;;;;;;;;4.75;4.75;;;;;26.26;44.88;101254.34;5038004;28;53497;-62
2023/07/20 06:01:13;;;;;;;;;3.75;3.75;;;;;26.37;44.19;101264.19;5037900;28;50707;-61
2023/07/20 06:03:38;;;;;;;;;7.00;5.50;;;;;26.39;44.53;101262.16;5038224;28;45399;-61
2023/07/20 06:06:05;;;;;;;;;5.00;2.75;;;;;26.44;44.15;101254.31;5038133;28;46189;-62
2023/07/20 06:08:31;;;;;;;;;1.00;1.00;;;;;26.54;44.28;101256.97;5038595;28;45344;-62
2023/07/20 06:10:57;;;;;;;;;6.00;4.75;;;;;26.62;44.15;101265.28;5038331;28;45400;-63
2023/07/20 06:13:22;;;;;;;;;3.50;3.50;;;;;26.74;43.93;101256.56;5038201;28;45183;-62
2023/07/20 06:15:47;;;;;;;;;4.00;4.00;;;;;26.82;43.55;101247.50;5037471;28;45496;-61
2023/07/20 06:18:13;;;;;;;;;4.00;3.50;;;;;26.92;43.25;101252.91;5037731;28;48425;-61
2023/07/20 06:20:39;;;;;;;;;7.50;4.50;;;;;26.99;43.60;101254.84;5039409;28;45315;-61
2023/07/20 06:23:04;;;;;;;;;7.75;4.75;;;;;26.95;43.38;101242.47;5041785;28;45231;-61
2023/07/20 06:25:29;;;;;;;;;6.00;4.50;;;;;27.02;43.10;101251.78;5041217;28;45248;-60
2023/07/20 06:27:56;;;;;;;;;5.25;4.00;;;;;27.04;43.32;101258.00;5041590;28;45174;-60
2023/07/20 06:30:21;;;;;;;;;3.00;3.00;;;;;26.99;43.35;101262.25;5041393;28;45227;-61
2023/07/20 06:32:47;;;;;;;;;5.00;3.75;;;;;27.09;42.92;101254.72;5041245;28;45461;-60
2023/07/20 06:35:13;;;;;;;;;3.25;1.50;;;;;27.20;42.85;101259.09;5041376;28;45907;-60
2023/07/20 06:37:38;;;;;;;;;2.50;2.50;;;;;27.23;42.76;101254.09;5041506;28;45330;-61
2023/07/20 06:40:04;;;;;;;;;3.75;3.75;;;;;27.21;42.69;101244.31;5041415;28;45237;-60
2023/07/20 06:42:30;;;;;;;;;3.00;3.00;;;;;27.34;42.81;101241.94;5041802;28;45418;-62
2023/07/20 06:44:57;;;;;;;;;4.00;3.50;;;;;27.40;42.67;101250.38;5041255;28;45348;-60
2023/07/20 06:47:22;;;;;;;;;5.00;5.00;;;;;27.50;42.83;101247.47;5040993;28;45228;-61
2023/07/20 06:49:48;;;;;;;;;2.25;2.25;;;;;27.59;42.68;101251.16;5041381;28;45248;-61
2023/07/20 06:52:13;;;;;;;;;4.25;4.25;;;;;27.63;42.58;101252.56;5041364;28;45468;-60
2023/07/20 06:54:38;;;;;;;;;4.25;4.25;;;;;27.68;41.56;101252.91;5040982;28;55344;-62
2023/07/20 06:57:05;;;;;;;;;3.50;3.50;;;;;27.64;41.67;101252.38;5041425;28;45228;-61
2023/07/20 06:59:30;;;;;;;;;4.75;4.75;;;;;27.59;42.12;101251.16;5041362;28;45257;-61
2023/07/20 07:01:55;;;;;;;;;6.00;6.00;;;;;27.62;41.77;101248.94;5040897;28;45438;-61
2023/07/20 07:04:21;;;;;;;;;4.25;4.25;;;;;27.69;42.08;101238.09;5040853;28;45908;-60
2023/07/20 07:06:46;;;;;;;;;4.75;3.25;;;;;27.80;41.73;101238.66;5056797;28;45301;-60
2023/07/20 07:09:12;;;;;;;;;3.50;3.50;;;;;27.83;41.82;101241.03;5040966;28;52666;-61
2023/07/20 07:11:37;;;;;;;;;4.00;4.00;;;;;27.85;41.67;101238.13;5041209;28;45244;-61
2023/07/20 07:14:02;;;;;;;;;4.75;4.75;;;;;27.84;41.71;101240.00;5040956;28;45838;-60
2023/07/20 07:16:28;;;;;;;;;6.00;4.50;;;;;28.00;41.35;101235.53;5040720;28;45379;-60
2023/07/20 07:18:53;;;;;;;;;5.00;5.00;;;;;28.08;41.67;101238.28;5040511;28;50376;-60
2023/07/20 07:21:18;;;;;;;;;7.50;5.00;;;;;28.13;41.05;101234.00;5040783;28;45302;-61
2023/07/20 07:23:45;;;;;;;;;4.75;4.50;;;;;28.20;41.03;101225.94;5040845;28;46122;-61
2023/07/20 07:26:10;;;;;;;;;35.50;24.50;;;;;28.28;40.94;101236.97;5040511;28;45354;-61
2023/07/20 07:28:36;;;;;;;;;17.00;12.50;;;;;28.38;40.66;101231.25;5041068;28;45330;-60
2023/07/20 07:31:05;;;;;;;;;11.25;9.00;;;;;28.50;40.57;101238.13;5038384;28;45637;-60
2023/07/20 07:33:30;;;;;;;;;12.75;12.75;;;;;28.55;39.92;101233.84;5040573;28;47023;-60
2023/07/20 07:35:56;;;;;;;;;4.75;4.75;;;;;28.62;40.52;101236.75;5040634;28;45303;-60
2023/07/20 07:38:23;;;;;;;;;4.25;4.25;;;;;28.53;39.84;101233.13;5040627;28;45249;-61
2023/07/20 07:40:48;;;;;;;;;4.50;4.00;;;;;28.59;40.02;101243.47;5041068;28;45292;-60
2023/07/20 07:43:13;;;;;;;;;7.75;6.00;;;;;28.71;40.22;101235.69;5040038;28;56193;-60
2023/07/20 07:45:40;;;;;;;;;7.00;6.00;;;;;28.84;39.67;101241.53;5040651;28;45275;-62
2023/07/20 07:48:05;;;;;;;;;8.25;6.00;;;;;28.82;39.53;101237.25;5039777;28;45410;-60
2023/07/20 07:50:31;;;;;;;;;2.75;2.00;;;;;28.91;38.96;101237.06;5040532;28;45423;-62
2023/07/20 07:52:56;;;;;;;;;4.50;3.50;;;;;28.88;38.59;101237.41;5040497;28;45465;-61
2023/07/20 07:55:22;;;;;;;;;3.25;3.25;;;;;28.85;38.37;101232.22;5040468;28;45263;-60
2023/07/20 07:57:47;;;;;;;;;4.75;3.25;;;;;28.89;38.38;101235.50;5040493;28;45224;-60
2023/07/20 08:00:14;;;;;;;;;6.75;3.75;;;;;28.96;38.76;101236.50;5040417;28;45176;-61
2023/07/20 08:02:41;;;;;;;;;3.75;3.75;;;;;29.09;39.29;101230.44;5040065;28;45228;-61
2023/07/20 08:05:07;;;;;;;;;3.00;3.00;;;;;29.08;39.00;101237.84;5039976;28;45434;-60
2023/07/20 08:07:32;;;;;;;;;5.75;4.25;;;;;29.08;39.03;101228.72;5040212;28;45593;-60
2023/07/20 08:09:57;;;;;;;;;6.00;4.50;;;;;29.16;39.03;101220.38;5039699;28;58647;-60
2023/07/20 08:12:23;;;;;;;;;9.00;5.00;;;;;29.05;38.94;101221.63;5039591;28;59436;-59
2023/07/20 08:14:48;;;;;;;;;3.50;3.25;;;;;29.13;37.46;101220.72;5040092;28;45346;-61
2023/07/20 08:17:14;;;;;;;;;4.50;4.50;;;;;29.06;37.50;101223.34;5039966;28;45570;-61
2023/07/20 08:19:41;;;;;;;;;4.00;2.25;;;;;29.20;37.22;101217.06;5039868;28;45298;-60
2023/07/20 08:22:07;;;;;;;;;2.75;2.50;;;;;29.18;37.65;101227.44;5040013;28;47049;-60
2023/07/20 08:24:33;;;;;;;;;2.00;2.00;;;;;29.25;37.78;101214.66;5039900;28;45305;-61
2023/07/20 08:26:58;;;;;;;;;4.50;2.50;;;;;29.35;37.62;101219.94;5039550;28;45533;-61
2023/07/20 08:29:24;;;;;;;;;3.50;3.50;;;;;29.49;37.45;101224.72;5039843;28;45473;-61
2023/07/20 08:31:49;;;;;;;;;4.75;3.00;;;;;29.51;37.10;101222.66;5039491;28;46124;-60
2023/07/20 08:34:14;;;;;;;;;3.00;3.00;;;;;29.60;36.48;101210.47;5040011;28;45291;-61
2023/07/20 08:36:40;;;;;;;;;3.00;3.00;;;;;29.57;34.92;101208.09;5039450;28;54117;-61
2023/07/20 08:39:05;;;;;;;;;2.25;2.25;;;;;29.59;35.18;101207.94;5039847;28;45514;-60
2023/07/20 08:41:30;;;;;;;;;3.00;3.00;;;;;29.54;35.52;101200.16;5039651;28;46075;-63
2023/07/20 08:43:57;;;;;;;;;2.00;2.00;;;;;29.57;34.22;101198.94;5038979;28;45259;-59
2023/07/20 08:46:24;;;;;;;;;2.25;1.00;;;;;29.58;34.67;101196.00;5039434;28;45292;-61
2023/07/20 08:48:52;;;;;;;;;1.00;1.00;;;;;29.59;34.89;101189.44;5039403;28;45339;-60
2023/07/20 08:51:19;;;;;;;;;1.00;1.00;;;;;29.71;34.80;101192.63;5038954;28;45309;-60
2023/07/20 08:53:45;;;;;;;;;1.75;1.75;;;;;29.73;34.80;101196.94;5039444;28;45244;-61
2023/07/20 08:56:12;;;;;;;;;2.00;2.00;;;;;29.63;33.81;101195.44;5039512;28;45235;-60
2023/07/20 08:58:40;;;;;;;;;2.25;2.25;;;;;29.66;34.61;101203.38;5039326;28;45362;-60
2023/07/20 09:01:05;;;;;;;;;0.75;0.75;;;;;29.57;34.41;101194.28;5039102;28;45501;-60
2023/07/20 09:03:32;;;;;;;;;2.00;2.00;;;;;29.57;34.16;101201.72;5039002;28;45565;-61
2023/07/20 09:05:57;;;;;;;;;1.50;1.50;;;;;29.57;33.43;101193.44;5039509;28;45249;-61
2023/07/20 09:08:23;;;;;;;;;2.75;2.75;;;;;29.69;33.36;101201.09;5038871;28;45549;-60
2023/07/20 09:10:48;;;;;;;;;3.00;3.00;;;;;29.66;34.33;101203.38;5039154;28;46077;-61
2023/07/20 09:13:17;;;;;;;;;2.00;1.00;;;;;29.75;33.28;101196.75;5039524;28;45166;-61
2023/07/20 09:15:53;;;;;;;;;1.75;1.75;;;;;29.80;33.32;101201.72;5039579;28;45386;-61
2023/07/20 09:18:30;;;;;;;;;1.25;1.25;;;;;29.89;33.19;101193.19;5039041;28;45314;-61
2023/07/20 09:21:03;;;;;;;;;1.75;1.75;;;;;30.01;32.76;101197.28;5038827;28;45253;-60
2023/07/20 09:23:41;;;;;;;;;0.75;0.75;;;;;30.00;32.54;101194.69;5039079;28;45268;-60
2023/07/20 09:26:15;;;;;;;;;0.50;0.50;;;;;30.08;32.54;101192.72;5039124;28;45366;-60
2023/07/20 09:28:54;;;;;;;;;1.25;1.25;;;;;30.11;31.54;101197.03;5038990;28;45452;-61
2023/07/20 09:31:21;;;;;;;;;1.50;1.50;;;;;30.13;31.17;101196.81;5038582;28;45995;-60
2023/07/20 09:33:48;;;;;;;;;1.25;1.25;;;;;30.13;31.27;101197.66;5038595;28;45251;-60
2023/07/20 09:36:14;;;;;;;;;1.75;1.75;;;;;30.11;31.61;101191.50;5039091;28;45358;-60
2023/07/20 09:38:43;;;;;;;;;0.75;0.75;;;;;30.14;31.36;101188.31;5038621;28;45501;-61
2023/07/20 09:41:14;;;;;;;;;1.00;1.00;;;;;30.16;30.44;101190.91;5039064;28;45264;-61
2023/07/20 09:43:41;;;;;;;;;0.00;0.00;;;;;30.16;30.57;101186.25;5038604;28;45355;-61
2023/07/20 09:46:07;;;;;;;;;0.50;0.50;;;;;30.09;30.51;101150.19;5038582;28;45345;-60
2023/07/20 09:48:32;;;;;;;;;1.75;1.75;;;;;30.12;30.89;101179.34;5038384;28;45255;-60
2023/07/20 09:50:57;;;;;;;;;0.75;0.75;;;;;30.23;31.44;101180.81;5039092;28;45270;-60
2023/07/20 09:53:25;;;;;;;;;1.25;1.25;;;;;30.16;31.27;101177.94;5038814;28;45610;-60
2023/07/20 09:55:52;;;;;;;;;0.00;0.00;;;;;30.15;29.45;101172.59;5042119;28;45246;-59
2023/07/20 09:58:18;;;;;;;;;0.50;0.50;;;;;30.09;29.41;101176.97;5042127;28;46089;-60
2023/07/20 10:00:46;;;;;;;;;0.25;0.25;;;;;30.16;29.20;101177.94;5041656;28;46132;-59
2023/07/20 10:03:16;;;;;;;;;0.50;0.50;;;;;30.29;29.55;101174.53;5041642;28;45361;-61
2023/07/20 10:05:47;;;;;;;;;0.25;0.25;;;;;30.39;29.40;101175.97;5042350;28;45255;-61
2023/07/20 10:08:16;;;;;;;;;0.50;0.50;;;;;30.28;29.19;101168.16;5042149;28;45313;-62
2023/07/20 10:10:45;;;;;;;;;0.75;0.75;;;;;30.30;29.02;101168.81;5041761;28;46131;-59
2023/07/20 10:13:18;;;;;;;;;0.25;0.25;;;;;30.43;29.19;101162.63;5042238;28;45558;-60
2023/07/20 10:15:50;;;;;;;;;0.75;0.75;;;;;30.55;28.88;101163.03;5041789;28;45257;-59
2023/07/20 10:18:25;;;;;;;;;1.75;1.75;;;;;30.64;28.76;101162.75;5041790;28;45261;-59
2023/07/20 10:20:54;;;;;;;;;0.50;0.50;;;;;30.62;29.24;101166.78;5041561;28;46236;-60
2023/07/20 10:23:21;;;;;;;;;1.75;0.50;;;;;30.51;28.16;101156.16;5041909;28;45350;-59
2023/07/20 10:25:47;;;;;;;;;1.00;1.00;;;;;30.53;28.44;101148.56;5041661;28;45328;-60
2023/07/20 10:28:13;;;;;;;;;2.50;1.75;;;;;30.66;28.61;101157.03;5041666;28;45449;-61
2023/07/20 10:30:39;;;;;;;;;2.50;1.00;;;;;30.78;28.37;101142.53;5041201;28;45261;-60
2023/07/20 10:33:05;;;;;;;;;0.75;0.75;;;;;30.81;28.24;101139.38;5041510;28;45266;-61
2023/07/20 10:35:50;;;;;;;;;0.50;0.50;;;;;30.94;28.10;101146.13;5041623;28;45434;-60
2023/07/20 10:38:15;;;;;;;;;0.75;0.75;;;;;30.74;28.21;101127.34;5041562;28;45482;-60
2023/07/20 10:40:40;;;;;;;;;2.00;2.00;;;;;30.76;27.95;101127.16;5041540;28;46327;-61
2023/07/20 10:43:07;;;;;;;;;1.25;0.50;;;;;30.82;28.09;101123.63;5041098;28;57596;-61
2023/07/20 10:45:49;;;;;;;;;0.50;0.50;;;;;30.87;28.67;101123.91;5042020;28;45282;-60
2023/07/20 10:48:22;;;;;;;;;2.00;2.00;;;;;30.90;28.30;101123.50;5041437;28;45531;-60
2023/07/20 10:51:33;;;;;;;;;1.75;1.75;;;;;30.82;28.19;101129.16;5041596;28;45224;-60
2023/07/20 10:54:02;;;;;;;;;2.00;2.00;;;;;30.81;27.65;101127.44;5039596;28;45332;-60
2023/07/20 10:56:31;;;;;;;;;3.00;1.75;;;;;30.77;28.15;101132.50;5041477;28;45354;-61
2023/07/20 10:59:00;;;;;;;;;0.75;0.75;;;;;30.83;27.38;101120.66;5041405;28;45449;-60
2023/07/20 11:01:33;;;;;;;;;3.75;1.75;;;;;30.94;27.34;101124.00;5040964;28;46241;-61
2023/07/20 11:04:02;;;;;;;;;1.00;1.00;;;;;30.91;27.37;101122.44;5041173;28;45346;-61
2023/07/20 11:06:27;;;;;;;;;3.25;3.25;;;;;30.90;27.70;101122.63;5040755;28;45315;-61
2023/07/20 11:09:14;;;;;;;;;1.75;1.75;;;;;30.91;28.05;101116.91;5041216;28;46881;-61
2023/07/20 11:11:44;;;;;;;;;1.75;1.75;;;;;31.03;28.08;101114.50;5040959;28;45551;-60
2023/07/20 11:14:21;;;;;;;;;1.50;1.50;;;;;31.10;27.91;101121.03;5040826;28;45478;-62
2023/07/20 11:16:48;;;;;;;;;1.00;1.00;;;;;31.15;27.41;101115.75;5041140;28;45399;-61
2023/07/20 11:19:23;;;;;;;;;1.75;1.75;;;;;31.27;28.08;101110.56;5040730;28;45241;-62
2023/07/20 11:21:53;;;;;;;;;1.00;1.00;;;;;31.33;27.45;101118.06;5040932;28;47082;-61
2023/07/20 11:24:20;;;;;;;;;1.75;1.75;;;;;31.37;27.71;101123.03;5040906;28;45391;-61
2023/07/20 11:26:55;;;;;;;;;1.75;1.75;;;;;31.36;27.24;101107.47;5040838;28;45279;-62
2023/07/20 11:29:23;;;;;;;;;1.75;1.75;;;;;31.55;26.46;101117.91;5027689;28;45359;-61
2023/07/20 11:31:49;;;;;;;;;1.50;1.50;;;;;31.68;26.53;101121.88;5040235;28;46451;-61
2023/07/20 11:34:16;;;;;;;;;1.50;1.50;;;;;31.63;25.90;101113.31;5040812;28;45442;-61
2023/07/20 11:36:46;;;;;;;;;0.75;0.75;;;;;31.68;26.08;101119.09;5040974;28;45232;-61
2023/07/20 11:39:19;;;;;;;;;0.00;0.00;;;;;31.73;25.96;101113.84;5040717;28;45363;-61
2023/07/20 11:41:47;;;;;;;;;0.75;0.75;;;;;31.75;25.94;101109.78;5040520;28;47254;-61
2023/07/20 11:44:13;;;;;;;;;0.75;0.75;;;;;31.87;25.53;101097.09;5040261;28;45314;-62
2023/07/20 11:46:42;;;;;;;;;0.75;0.75;;;;;31.94;25.76;101097.16;5040183;28;45233;-61
2023/07/20 11:49:08;;;;;;;;;2.00;2.00;;;;;32.02;25.44;101104.47;5040091;28;45508;-61
2023/07/20 11:51:35;;;;;;;;;1.75;1.75;;;;;32.15;25.74;101102.66;5040291;28;46193;-60
2023/07/20 11:54:02;;;;;;;;;0.75;0.75;;;;;32.16;25.69;101090.50;5040818;28;45611;-61
2023/07/20 11:56:28;;;;;;;;;1.75;1.75;;;;;32.14;26.18;101067.66;5040583;28;45365;-61
2023/07/20 11:59:01;;;;;;;;;1.00;0.75;;;;;32.27;25.97;101086.31;5040510;28;45252;-60
2023/07/20 12:01:29;;;;;;;;;1.00;1.00;;;;;32.29;26.07;101076.75;5039969;28;45392;-61
2023/07/20 12:04:01;;;;;;;;;2.25;1.50;;;;;32.42;26.30;101078.72;5040418;28;45244;-61
2023/07/20 12:06:28;;;;;;;;;2.00;2.00;;;;;32.29;25.52;101062.00;5040312;28;45327;-61
2023/07/20 12:08:58;;;;;;;;;1.50;1.50;;;;;32.49;25.09;101079.66;5040336;28;45193;-61
2023/07/20 12:11:32;;;;;;;;;1.00;1.00;;;;;32.50;25.33;101081.34;5040165;28;46126;-61
2023/07/20 12:13:58;;;;;;;;;1.25;1.25;;;;;32.45;24.83;101083.88;5040175;28;45686;-61
2023/07/20 12:16:27;;;;;;;;;1.00;1.00;;;;;32.45;24.75;101070.00;5040184;28;45338;-62
2023/07/20 12:19:02;;;;;;;;;0.00;0.00;;;;;32.56;25.31;101068.56;5038874;28;45422;-61
2023/07/20 12:21:29;;;;;;;;;1.75;1.75;;;;;32.63;24.41;101066.69;5039947;28;45420;-60
2023/07/20 12:23:57;;;;;;;;;3.00;1.00;;;;;32.71;25.17;101058.19;5038655;28;45291;-61
2023/07/20 12:26:23;;;;;;;;;2.75;0.75;;;;;32.78;24.82;101050.75;5039878;28;45373;-62
2023/07/20 12:28:49;;;;;;;;;1.50;1.25;;;;;32.77;24.24;101048.16;5039947;28;45276;-60
2023/07/20 12:31:15;;;;;;;;;0.00;0.00;;;;;32.76;23.76;101052.88;5039663;28;45361;-61
2023/07/20 12:33:41;;;;;;;;;2.00;2.00;;;;;32.75;23.59;101033.66;5039716;28;45304;-61
2023/07/20 12:36:06;;;;;;;;;1.00;1.00;;;;;32.82;23.94;101034.53;5055690;28;45339;-61
2023/07/20 12:38:31;;;;;;;;;0.75;0.75;;;;;32.87;23.95;101041.16;5055190;28;46428;-61
2023/07/20 12:40:58;;;;;;;;;0.75;0.75;;;;;32.91;23.83;101047.19;5039943;28;46060;-60
2023/07/20 12:43:24;;;;;;;;;0.00;0.00;;;;;32.75;23.65;101033.66;5039994;28;45269;-62
2023/07/20 12:45:49;;;;;;;;;0.75;0.75;;;;;32.67;24.01;101031.88;5039669;28;45208;-61
2023/07/20 12:48:14;;;;;;;;;0.00;0.00;;;;;32.81;23.86;101032.81;5039549;28;46170;-59
2023/07/20 12:50:40;;;;;;;;;0.00;0.00;;;;;32.93;24.08;101032.00;5039594;28;51058;-60
2023/07/20 12:53:05;;;;;;;;;0.50;0.50;;;;;33.06;23.48;101023.69;5054967;28;45162;-60
2023/07/20 12:55:31;;;;;;;;;1.00;1.00;;;;;32.98;23.00;101028.59;5039919;28;45164;-61
2023/07/20 12:57:56;;;;;;;;;1.00;1.00;;;;;33.14;24.25;101025.44;5054816;28;45510;-61
2023/07/20 13:00:22;;;;;;;;;1.00;1.00;;;;;33.33;22.96;101024.63;5039527;28;46678;-60
2023/07/20 13:02:48;;;;;;;;;1.00;1.00;;;;;33.44;23.39;101021.19;5039213;28;45563;-61
2023/07/20 13:05:14;;;;;;;;;2.00;1.00;;;;;33.52;23.36;101017.34;5039406;28;45317;-60
2023/07/20 13:07:41;;;;;;;;;0.50;0.50;;;;;33.72;23.30;101014.56;5039713;28;45287;-61
2023/07/20 13:10:07;;;;;;;;;2.00;0.00;;;;;33.77;22.60;101012.06;5039554;28;45361;-60
2023/07/20 13:12:34;;;;;;;;;0.50;0.50;;;;;33.73;22.02;101007.97;5039356;28;45375;-60
2023/07/20 13:15:02;;;;;;;;;0.25;0.25;;;;;33.85;22.44;101013.75;5039476;28;45256;-61
2023/07/20 13:17:27;;;;;;;;;0.25;0.25;;;;;33.97;22.74;101004.50;5038977;28;45283;-62
2023/07/20 13:19:53;;;;;;;;;0.75;0.75;;;;;34.16;22.56;101003.63;5039165;28;45327;-61
2023/07/20 13:22:18;;;;;;;;;0.50;0.50;;;;;34.17;22.50;100991.41;5039262;28;45306;-60
2023/07/20 13:24:48;;;;;;;;;0.75;0.75;;;;;34.25;23.01;101000.63;5039504;28;45683;-61
2023/07/20 13:27:14;;;;;;;;;1.00;1.00;;;;;34.32;22.88;101001.47;5039120;28;46060;-60
2023/07/20 13:29:39;;;;;;;;;0.75;0.75;;;;;34.25;22.99;100986.72;5038923;28;45261;-62
2023/07/20 13:32:06;;;;;;;;;2.00;0.75;;;;;34.18;23.07;100986.72;5039018;28;45470;-60
2023/07/20 13:34:31;;;;;;;;;3.00;1.75;;;;;34.21;22.49;100993.75;5054647;28;45245;-61
2023/07/20 13:36:57;;;;;;;;;0.00;0.00;;;;;34.23;22.50;100978.53;5039134;28;45255;-61
2023/07/20 13:39:24;;;;;;;;;1.00;1.00;;;;;34.20;22.87;100964.22;5039396;28;46223;-60
2023/07/20 13:41:49;;;;;;;;;2.50;1.00;;;;;34.33;23.41;100978.97;5039374;28;45472;-62
2023/07/20 13:44:15;;;;;;;;;0.50;0.50;;;;;34.21;22.71;100971.47;5039567;28;45305;-61
2023/07/20 13:46:40;;;;;;;;;0.00;0.00;;;;;34.11;23.40;100980.31;5038655;28;45442;-61
2023/07/20 13:49:06;;;;;;;;;1.00;1.00;;;;;33.98;22.90;100972.84;5038410;28;54862;-61
2023/07/20 13:51:31;;;;;;;;;1.00;1.00;;;;;33.96;23.38;100977.75;5038854;28;45343;-60
2023/07/20 13:53:57;;;;;;;;;1.00;1.00;;;;;34.01;23.20;100966.00;5039232;28;45334;-61
2023/07/20 13:56:25;;;;;;;;;1.50;0.75;;;;;34.06;23.36;100967.03;5038877;28;45319;-62
2023/07/20 13:58:50;;;;;;;;;1.00;1.00;;;;;34.14;22.76;100968.72;5054160;28;47181;-61
2023/07/20 14:01:17;;;;;;;;;0.75;0.75;;;;;34.23;22.99;100967.41;5038305;28;45311;-60
2023/07/20 14:03:43;;;;;;;;;1.00;1.00;;;;;34.28;22.37;100948.16;5038909;28;45186;-60
2023/07/20 14:06:08;;;;;;;;;0.00;0.00;;;;;34.42;22.16;100949.81;5038577;28;45303;-60
2023/07/20 14:08:33;;;;;;;;;0.25;0.25;;;;;34.51;22.76;100942.06;5038855;28;46325;-61
2023/07/20 14:10:58;;;;;;;;;1.00;1.00;;;;;34.57;22.64;100941.16;5038595;28;45331;-62
2023/07/20 14:13:24;;;;;;;;;3.75;2.50;;;;;34.64;22.29;100946.69;5037681;28;45569;-61
2023/07/20 14:15:50;;;;;;;;;1.25;0.75;;;;;34.61;22.44;100936.88;5036957;28;45386;-61
2023/07/20 14:18:15;;;;;;;;;1.50;0.50;;;;;34.58;22.10;100939.22;5038460;28;45954;-61
2023/07/20 14:20:40;;;;;;;;;1.50;1.50;;;;;34.60;22.20;100932.38;5038481;28;45247;-61
2023/07/20 14:23:06;;;;;;;;;1.50;0.75;;;;;34.65;21.83;100932.53;5038776;28;45442;-60
2023/07/20 14:25:33;;;;;;;;;1.00;1.00;;;;;34.78;22.46;100934.44;5038473;28;45321;-61
2023/07/20 14:27:58;;;;;;;;;1.25;1.25;;;;;34.83;21.62;100927.09;5038133;28;47242;-60
2023/07/20 14:30:25;;;;;;;;;1.00;1.00;;;;;34.99;22.19;100927.63;5038261;28;45250;-61
2023/07/20 14:32:50;;;;;;;;;0.75;0.75;;;;;35.07;22.33;100927.34;5053803;28;45443;-60
2023/07/20 14:35:16;;;;;;;;;1.00;1.00;;;;;35.20;21.60;100928.13;5038352;28;45313;-62
2023/07/20 14:37:41;;;;;;;;;1.00;1.00;;;;;35.28;21.49;100927.00;5038387;28;46082;-62
2023/07/20 14:40:07;;;;;;;;;1.00;1.00;;;;;35.32;20.96;100922.66;5037282;28;45261;-61
2023/07/20 14:42:32;;;;;;;;;1.00;1.00;;;;;35.28;21.57;100915.84;5041204;28;45422;-61
2023/07/20 14:44:58;;;;;;;;;0.75;0.75;;;;;35.34;21.74;100917.72;5041355;28;56613;-62
2023/07/20 14:47:23;;;;;;;;;1.25;1.25;;;;;35.41;21.09;100912.94;5053146;28;55020;-60
2023/07/20 14:49:49;;;;;;;;;0.75;0.75;;;;;35.43;21.86;100915.50;5035266;28;45362;-60
2023/07/20 14:52:14;;;;;;;;;1.00;1.00;;;;;35.41;21.01;100912.06;5041949;28;45304;-61
2023/07/20 14:54:39;;;;;;;;;2.00;1.00;;;;;35.31;21.01;100907.00;5041636;28;45252;-61
2023/07/20 14:57:07;;;;;;;;;3.00;2.25;;;;;35.42;21.70;100899.84;5041639;28;46593;-60
2023/07/20 14:59:32;;;;;;;;;1.00;1.00;;;;;35.34;20.65;100903.78;5041584;28;45252;-61
2023/07/20 15:01:58;;;;;;;;;1.50;1.50;;;;;35.30;21.39;100904.47;5041322;28;45273;-60
2023/07/20 15:04:23;;;;;;;;;1.00;1.00;;;;;35.31;21.12;100898.66;5041275;28;45284;-61
2023/07/20 15:06:48;;;;;;;;;1.00;1.00;;;;;35.29;21.53;100909.19;5039918;28;47272;-61
2023/07/20 15:09:13;;;;;;;;;0.00;0.00;;;;;35.18;21.20;100899.59;5039706;28;45250;-61
2023/07/20 15:11:39;;;;;;;;;1.50;1.00;;;;;35.08;21.25;100904.84;5041537;28;45425;-61
2023/07/20 15:14:04;;;;;;;;;3.00;1.00;;;;;35.05;21.44;100908.06;5041228;28;45446;-61
2023/07/20 15:16:30;;;;;;;;;3.00;1.50;;;;;35.10;21.47;100899.03;5041003;28;45290;-62
2023/07/20 15:18:55;;;;;;;;;3.00;1.00;;;;;34.99;21.24;100903.41;5041060;28;45328;-60
2023/07/20 15:21:20;;;;;;;;;1.00;1.00;;;;;34.77;21.07;100905.72;5041453;28;45464;-61
2023/07/20 15:23:46;;;;;;;;;1.00;1.00;;;;;34.73;21.55;100900.78;5041289;28;45421;-61
2023/07/20 15:26:12;;;;;;;;;2.00;2.00;;;;;34.66;21.33;100911.13;5056143;28;45577;-60
2023/07/20 15:28:38;;;;;;;;;2.00;2.00;;;;;34.64;21.61;100905.75;5040985;28;45182;-61
2023/07/20 15:31:05;;;;;;;;;2.00;1.75;;;;;34.63;21.58;100905.97;5040766;28;45377;-61
2023/07/20 15:33:30;;;;;;;;;2.25;1.00;;;;;34.51;20.97;100887.22;5040776;28;45693;-61
2023/07/20 15:35:56;;;;;;;;;1.75;1.75;;;;;34.62;21.99;100902.38;5040871;28;46264;-60
2023/07/20 15:38:21;;;;;;;;;4.50;2.25;;;;;34.34;21.46;100879.63;5040754;28;45355;-61
2023/07/20 15:40:49;;;;;;;;;2.00;2.00;;;;;34.34;20.83;100894.38;5041241;28;45422;-60
2023/07/20 15:43:15;;;;;;;;;1.00;1.00;;;;;34.27;20.97;100885.22;5040831;28;45201;-61
2023/07/20 15:45:40;;;;;;;;;2.25;2.25;;;;;34.35;22.20;100884.09;5040395;28;46315;-60
2023/07/20 15:48:05;;;;;;;;;3.00;1.50;;;;;34.38;21.50;100886.44;5040403;28;45245;-60
2023/07/20 15:50:31;;;;;;;;;1.00;1.00;;;;;34.33;21.66;100880.69;5040926;28;45422;-63
2023/07/20 15:52:56;;;;;;;;;2.00;2.00;;;;;34.32;22.06;100884.53;5040671;28;45405;-60